createdAt,value
2022-08-02T00:01:20.301Z,100455.34
2022-08-02T00:03:47.481Z,100456.34
2022-08-02T00:06:14.656Z,100455.28
2022-08-02T00:08:41.824Z,100457.69
2022-08-02T00:11:09.005Z,100464.69
2022-08-02T00:13:39.486Z,100470.19
2022-08-02T00:16:09.377Z,100470.19
2022-08-02T00:18:36.556Z,100470.19
2022-08-02T00:21:03.868Z,100476.16
2022-08-02T00:23:31.121Z,100477.19
2022-08-02T00:25:58.930Z,100480.56
2022-08-02T00:28:27.733Z,100485.94
2022-08-02T00:30:57.579Z,100484.50
2022-08-02T00:34:26.390Z,100480.75
2022-08-02T00:36:12.104Z,100483.63
2022-08-02T00:38:39.280Z,100476.91
2022-08-02T00:41:11.600Z,100478.72
2022-08-02T00:43:39.072Z,100480.75
2022-08-02T00:46:06.338Z,100481.00
2022-08-02T00:48:33.613Z,100484.94
2022-08-02T00:51:01.974Z,100482.06
2022-08-02T00:53:29.229Z,100475.88
2022-08-02T00:56:14.846Z,100482.25
2022-08-02T00:58:42.106Z,100485.31
2022-08-02T01:01:09.632Z,100482.25
2022-08-02T01:03:36.886Z,100487.50
2022-08-02T01:06:11.641Z,100486.56
2022-08-02T01:08:40.073Z,100498.41
2022-08-02T01:11:07.474Z,100488.31
2022-08-02T01:13:34.747Z,100493.47
2022-08-02T01:16:04.185Z,100486.66
2022-08-02T01:18:35.847Z,100496.91
2022-08-02T01:21:14.228Z,100488.78
2022-08-02T01:23:44.167Z,100492.38
2022-08-02T01:26:17.259Z,100495.13
2022-08-02T01:28:50.736Z,100496.31
2022-08-02T01:31:26.186Z,100508.09
2022-08-02T01:34:03.099Z,100500.75
2022-08-02T01:36:32.799Z,100504.59
2022-08-02T01:39:01.864Z,100513.09
2022-08-02T01:41:29.706Z,100507.56
2022-08-02T01:43:59.473Z,100507.09
2022-08-02T01:46:27.683Z,100509.75
2022-08-02T01:48:56.443Z,100516.94
2022-08-02T01:51:44.937Z,100511.88
2022-08-02T01:54:14.459Z,100516.16
2022-08-02T01:56:43.151Z,100518.41
2022-08-02T01:59:12.989Z,100515.22
2022-08-02T02:01:41.782Z,100530.91
2022-08-02T02:04:09.901Z,100526.38
2022-08-02T02:06:37.736Z,100535.69
2022-08-02T02:09:05.364Z,100530.00
2022-08-02T02:12:06.569Z,100530.00
2022-08-02T02:14:21.831Z,100535.63
2022-08-02T02:16:49.368Z,100539.69
2022-08-02T02:19:20.906Z,100548.91
2022-08-02T02:21:48.678Z,100553.13
2022-08-02T02:24:15.985Z,100549.81
2022-08-02T02:26:52.126Z,100555.38
2022-08-02T02:29:25.423Z,100549.44
2022-08-02T02:31:53.514Z,100552.38
2022-08-02T02:34:26.534Z,100552.38
2022-08-02T02:36:54.736Z,100556.75
2022-08-02T02:39:22.897Z,100555.06
2022-08-02T02:41:51.499Z,100551.06
2022-08-02T02:44:20.064Z,100557.59
2022-08-02T02:46:49.669Z,100548.41
2022-08-02T02:49:18.117Z,100556.50
2022-08-02T02:51:46.045Z,100551.50
2022-08-02T02:54:30.089Z,100550.66
2022-08-02T02:57:02.685Z,100549.41
2022-08-02T02:59:30.317Z,100558.22
2022-08-02T03:01:58.813Z,100570.38
2022-08-02T03:04:36.047Z,100559.22
2022-08-02T03:07:15.708Z,100554.66
2022-08-02T03:09:43.093Z,100551.34
2022-08-02T03:12:11.109Z,100550.91
2022-08-02T03:14:44.897Z,100547.34
2022-08-02T03:17:16.753Z,100546.34
2022-08-02T03:19:44.781Z,100554.38
2022-08-02T03:22:12.278Z,100556.50
2022-08-02T03:24:39.707Z,100548.31
2022-08-02T03:27:07.182Z,100549.44
2022-08-02T03:29:34.871Z,100558.78
2022-08-02T03:32:02.328Z,100556.75
2022-08-02T03:34:29.704Z,100557.63
2022-08-02T03:36:58.214Z,100556.91
2022-08-02T03:39:25.958Z,100552.75
2022-08-02T03:41:54.866Z,100552.66
2022-08-02T03:44:22.933Z,100555.19
2022-08-02T03:46:51.169Z,100547.88
2022-08-02T03:49:19.036Z,100549.88
2022-08-02T03:51:47.233Z,100572.56
2022-08-02T03:54:15.048Z,100574.00
2022-08-02T03:56:42.410Z,100584.19
2022-08-02T03:59:13.764Z,100600.91
2022-08-02T04:01:41.334Z,100608.09
2022-08-02T04:04:09.040Z,100621.03
2022-08-02T04:06:39.868Z,100636.53
2022-08-02T04:09:07.233Z,100643.81
2022-08-02T04:11:34.592Z,100655.53
2022-08-02T04:14:36.362Z,100662.75
2022-08-02T04:17:08.413Z,100682.25
2022-08-02T04:19:40.723Z,100698.44
2022-08-02T04:22:13.301Z,100705.75
2022-08-02T04:25:01.358Z,100709.13
2022-08-02T04:28:15.461Z,100696.47
2022-08-02T04:30:17.189Z,100682.97
2022-08-02T04:32:44.833Z,100669.75
2022-08-02T04:35:20.371Z,100674.63
2022-08-02T04:38:05.671Z,100680.50
2022-08-02T04:40:36.107Z,100696.63
2022-08-02T04:43:03.376Z,100699.03
2022-08-02T04:45:30.630Z,100706.75
2022-08-02T04:48:06.126Z,100698.66
2022-08-02T04:50:34.563Z,100709.09
2022-08-02T04:53:01.972Z,100722.22
2022-08-02T04:55:29.980Z,100716.19
2022-08-02T04:57:58.580Z,100729.44
2022-08-02T05:00:27.157Z,100723.72
2022-08-02T05:02:55.802Z,100732.47
2022-08-02T05:05:23.075Z,100729.53
2022-08-02T05:07:50.302Z,100731.84
2022-08-02T05:10:17.515Z,100732.44
2022-08-02T05:12:44.746Z,100723.81
2022-08-02T05:15:13.168Z,100726.47
2022-08-02T05:17:47.404Z,100730.72
2022-08-02T05:20:18.565Z,100729.47
2022-08-02T05:22:45.792Z,100727.31
2022-08-02T05:25:13.038Z,100730.97
2022-08-02T05:27:40.578Z,100736.16
2022-08-02T05:30:08.294Z,100737.22
2022-08-02T05:32:35.865Z,100737.94
2022-08-02T05:35:03.351Z,100753.66
2022-08-02T05:37:32.127Z,100773.31
2022-08-02T05:40:01.162Z,100798.69
2022-08-02T05:42:31.943Z,100822.38
2022-08-02T05:44:59.587Z,100836.13
2022-08-02T05:47:26.882Z,100845.16
2022-08-02T05:49:54.077Z,100846.03
2022-08-02T05:52:24.248Z,100868.31
2022-08-02T05:54:57.368Z,100876.03
2022-08-02T05:57:41.881Z,100879.50
2022-08-02T06:00:13.375Z,100860.84
2022-08-02T06:02:43.345Z,100854.34
2022-08-02T06:05:12.453Z,100859.03
2022-08-02T06:07:42.007Z,100853.59
2022-08-02T06:10:10.021Z,100856.94
2022-08-02T06:12:41.450Z,100852.88
2022-08-02T06:15:08.817Z,100853.03
2022-08-02T06:17:41.942Z,100853.25
2022-08-02T06:20:13.389Z,100857.19
2022-08-02T06:22:44.947Z,100861.81
2022-08-02T06:25:49.862Z,100868.81
2022-08-02T06:28:01.251Z,100856.72
2022-08-02T06:30:28.900Z,100843.59
2022-08-02T06:32:56.314Z,100836.75
2022-08-02T06:35:25.780Z,100839.84
2022-08-02T06:37:58.883Z,100855.59
2022-08-02T06:40:29.374Z,100852.56
2022-08-02T06:42:56.576Z,100864.19
2022-08-02T06:45:23.823Z,100866.47
2022-08-02T06:47:50.981Z,100862.53
2022-08-02T06:50:18.197Z,100854.28
2022-08-02T06:52:45.696Z,100849.44
2022-08-02T06:55:12.972Z,100858.25
2022-08-02T06:57:40.105Z,100858.72
2022-08-02T07:00:09.599Z,100859.25
2022-08-02T07:02:37.302Z,100876.91
2022-08-02T07:05:04.827Z,100862.94
2022-08-02T07:07:32.273Z,100861.50
2022-08-02T07:10:01.676Z,100878.38
2022-08-02T07:12:31.755Z,100873.81
2022-08-02T07:15:03.532Z,100851.59
2022-08-02T07:17:31.260Z,100843.66
2022-08-02T07:19:58.822Z,100845.63
2022-08-02T07:22:27.533Z,100852.75
2022-08-02T07:24:56.400Z,100849.78
2022-08-02T07:27:23.843Z,100848.91
2022-08-02T07:29:51.138Z,100846.94
2022-08-02T07:32:19.346Z,100855.63
2022-08-02T07:34:52.668Z,100862.94
2022-08-02T07:37:35.657Z,100858.13
2022-08-02T07:40:14.147Z,100851.41
2022-08-02T07:42:43.362Z,100853.38
2022-08-02T07:45:11.312Z,100857.16
2022-08-02T07:47:39.118Z,100844.91
2022-08-02T07:50:06.668Z,100836.38
2022-08-02T07:52:33.929Z,100851.34
2022-08-02T07:55:01.269Z,100843.16
2022-08-02T07:57:28.529Z,100836.31
2022-08-02T07:59:55.679Z,100822.78
2022-08-02T08:02:24.779Z,100826.69
2022-08-02T08:04:52.562Z,100822.66
2022-08-02T08:07:20.343Z,100827.72
2022-08-02T08:09:50.769Z,100815.16
2022-08-02T08:12:21.296Z,100806.75
2022-08-02T08:14:48.472Z,100802.84
2022-08-02T08:17:15.688Z,100806.56
2022-08-02T08:19:51.919Z,100810.91
2022-08-02T08:22:22.864Z,100825.75
2022-08-02T08:24:50.519Z,100824.78
2022-08-02T08:27:18.531Z,100818.19
2022-08-02T08:29:46.222Z,100819.94
2022-08-02T08:32:17.454Z,100819.06
2022-08-02T08:34:45.971Z,100812.25
2022-08-02T08:37:18.156Z,100812.75
2022-08-02T08:39:58.021Z,100802.84
2022-08-02T08:42:30.915Z,100803.41
2022-08-02T08:44:58.809Z,100813.31
2022-08-02T08:47:34.386Z,100816.63
2022-08-02T08:50:03.188Z,100822.97
2022-08-02T08:52:32.556Z,100819.25
2022-08-02T08:54:59.865Z,100828.53
2022-08-02T08:57:29.631Z,100826.56
2022-08-02T08:59:56.987Z,100827.56
2022-08-02T09:02:28.095Z,100822.31
2022-08-02T09:04:55.922Z,100831.16
2022-08-02T09:07:23.717Z,100832.28
2022-08-02T09:09:50.903Z,100842.28
2022-08-02T09:12:19.623Z,100844.78
2022-08-02T09:14:50.134Z,100840.00
2022-08-02T09:17:18.129Z,100834.81
2022-08-02T09:19:46.290Z,100837.59
2022-08-02T09:22:15.496Z,100844.50
2022-08-02T09:24:43.770Z,100842.38
2022-08-02T09:27:12.037Z,100843.19
2022-08-02T09:30:06.004Z,100841.78
2022-08-02T09:32:29.679Z,100850.81
2022-08-02T09:34:56.845Z,100853.19
2022-08-02T09:37:27.885Z,100851.22
2022-08-02T09:39:57.218Z,100857.69
2022-08-02T09:42:30.750Z,100855.47
2022-08-02T09:45:00.462Z,100852.16
2022-08-02T09:47:28.798Z,100854.63
2022-08-02T09:49:58.564Z,100851.19
2022-08-02T09:52:37.459Z,100851.78
2022-08-02T09:55:11.439Z,100849.47
2022-08-02T09:57:38.957Z,100841.38
2022-08-02T10:00:07.809Z,100839.25
2022-08-02T10:03:02.238Z,100841.53
2022-08-02T10:05:34.675Z,100835.41
2022-08-02T10:08:09.359Z,100827.56
2022-08-02T10:10:36.668Z,100828.31
2022-08-02T10:13:04.959Z,100826.06
2022-08-02T10:15:32.243Z,100826.28
2022-08-02T10:17:59.471Z,100815.88
2022-08-02T10:20:26.703Z,100816.72
2022-08-02T10:22:54.888Z,100821.72
2022-08-02T10:25:22.182Z,100810.72
2022-08-02T10:28:04.856Z,100804.91
2022-08-02T10:30:34.621Z,100811.53
2022-08-02T10:33:03.276Z,100804.66
2022-08-02T10:35:32.846Z,100800.88
2022-08-02T10:38:07.788Z,100795.31
2022-08-02T10:40:44.435Z,100793.00
2022-08-02T10:43:11.813Z,100791.16
2022-08-02T10:45:39.547Z,100789.88
2022-08-02T10:48:11.768Z,100782.56
2022-08-02T10:50:59.241Z,100779.09
2022-08-02T10:53:32.087Z,100773.91
2022-08-02T10:56:04.664Z,100764.91
2022-08-02T10:58:32.920Z,100768.75
2022-08-02T11:01:04.544Z,100769.47
2022-08-02T11:03:32.893Z,100763.72
2022-08-02T11:06:25.620Z,100763.13
2022-08-02T11:09:12.400Z,100757.63
2022-08-02T11:11:59.488Z,100762.72
2022-08-02T11:14:26.826Z,100752.91
2022-08-02T11:16:57.068Z,100754.78
2022-08-02T11:19:25.257Z,100753.19
2022-08-02T11:22:05.880Z,100758.16
2022-08-02T11:24:33.965Z,100762.16
2022-08-02T11:27:05.407Z,100751.53
2022-08-02T11:29:38.372Z,100760.28
2022-08-02T11:32:15.390Z,100747.44
2022-08-02T11:34:43.428Z,100750.91
2022-08-02T11:37:11.280Z,100749.94
2022-08-02T11:39:38.457Z,100744.09
2022-08-02T11:42:05.831Z,100745.88
2022-08-02T11:44:39.992Z,100751.25
2022-08-02T11:47:08.366Z,100748.56
2022-08-02T11:49:37.058Z,100736.97
2022-08-02T11:52:05.581Z,100745.19
2022-08-02T11:54:35.308Z,100747.25
2022-08-02T11:57:18.982Z,100741.41
2022-08-02T11:59:51.547Z,100734.91
2022-08-02T12:02:22.555Z,100735.97
2022-08-02T12:04:58.882Z,100738.75
2022-08-02T12:07:30.394Z,100745.44
2022-08-02T12:10:07.304Z,100736.00
2022-08-02T12:12:47.032Z,100748.03
2022-08-02T12:15:17.345Z,100736.84
2022-08-02T12:18:05.372Z,100738.72
2022-08-02T12:20:37.069Z,100737.88
2022-08-02T12:23:04.497Z,100737.53
2022-08-02T12:25:34.525Z,100736.03
2022-08-02T12:28:18.154Z,100734.00
2022-08-02T12:31:03.484Z,100725.25
2022-08-02T12:33:46.765Z,100732.00
2022-08-02T12:36:18.128Z,100733.91
2022-08-02T12:38:55.635Z,100725.47
2022-08-02T12:41:31.114Z,100724.63
2022-08-02T12:44:00.133Z,100723.22
2022-08-02T12:46:27.564Z,100712.50
2022-08-02T12:49:16.475Z,100708.03
2022-08-02T12:51:50.896Z,100706.38
2022-08-02T12:54:31.213Z,100714.28
2022-08-02T12:57:19.498Z,100705.75
2022-08-02T12:59:53.714Z,100707.09
2022-08-02T13:02:21.612Z,100706.56
2022-08-02T13:04:50.635Z,100695.06
2022-08-02T13:07:18.919Z,100700.34
2022-08-02T13:09:48.312Z,100692.47
2022-08-02T13:12:16.174Z,100702.44
2022-08-02T13:14:43.741Z,100698.19
2022-08-02T13:17:11.648Z,100705.91
2022-08-02T13:19:39.263Z,100699.03
2022-08-02T13:22:08.413Z,100691.66
2022-08-02T13:24:41.158Z,100690.44
2022-08-02T13:27:23.835Z,100689.59
2022-08-02T13:29:51.309Z,100683.41
2022-08-02T13:32:18.724Z,100682.22
2022-08-02T13:34:46.208Z,100674.13
2022-08-02T13:37:13.463Z,100686.31
2022-08-02T13:39:40.778Z,100675.50
2022-08-02T13:42:16.686Z,100671.72
2022-08-02T13:44:44.426Z,100672.06
2022-08-02T13:47:11.644Z,100673.09
2022-08-02T13:49:51.499Z,100671.72
2022-08-02T13:52:19.318Z,100667.59
2022-08-02T13:54:46.513Z,100672.06
2022-08-02T13:57:13.659Z,100677.56
2022-08-02T13:59:57.971Z,100672.94
2022-08-02T14:02:28.077Z,100672.56
2022-08-02T14:04:55.703Z,100672.44
2022-08-02T14:07:22.947Z,100671.38
2022-08-02T14:09:50.107Z,100674.28
2022-08-02T14:12:17.597Z,100673.09
2022-08-02T14:14:45.033Z,100674.47
2022-08-02T14:17:13.612Z,100672.25
2022-08-02T14:19:40.801Z,100667.44
2022-08-02T14:22:21.268Z,100668.47
2022-08-02T14:24:48.653Z,100668.28
2022-08-02T14:27:15.967Z,100664.84
2022-08-02T14:29:43.251Z,100666.72
2022-08-02T14:32:10.824Z,100656.59
2022-08-02T14:34:38.333Z,100652.97
2022-08-02T14:37:05.575Z,100648.03
2022-08-02T14:39:43.588Z,100651.63
2022-08-02T14:42:19.893Z,100653.34
2022-08-02T14:44:47.049Z,100642.19
2022-08-02T14:47:14.464Z,100652.16
2022-08-02T14:49:44.995Z,100640.31
2022-08-02T14:52:14.907Z,100643.91
2022-08-02T14:54:43.207Z,100639.94
2022-08-02T14:57:10.661Z,100638.22
2022-08-02T14:59:42.539Z,100636.84
2022-08-02T15:02:10.829Z,100634.81
2022-08-02T15:04:42.822Z,100634.28
2022-08-02T15:07:11.467Z,100628.59
2022-08-02T15:09:39.463Z,100623.09
2022-08-02T15:12:08.181Z,100630.16
2022-08-02T15:14:35.364Z,100621.75
2022-08-02T15:17:02.821Z,100623.13
2022-08-02T15:19:57.324Z,100623.81
2022-08-02T15:22:19.367Z,100616.41
2022-08-02T15:24:47.400Z,100614.34
2022-08-02T15:27:15.173Z,100615.22
2022-08-02T15:29:43.700Z,100612.81
2022-08-02T15:32:11.472Z,100612.81
2022-08-02T15:34:39.204Z,100616.06
2022-08-02T15:37:06.429Z,100609.88
2022-08-02T15:39:33.610Z,100605.44
2022-08-02T15:42:00.807Z,100602.31
2022-08-02T15:44:28.386Z,100602.31
2022-08-02T15:46:55.817Z,100612.47
2022-08-02T15:49:23.862Z,100617.47
2022-08-02T15:51:52.152Z,100606.78
2022-08-02T15:54:19.969Z,100614.53
2022-08-02T15:56:47.268Z,100605.59
2022-08-02T15:59:15.313Z,100609.03
2022-08-02T16:01:47.181Z,100606.28
2022-08-02T16:04:15.614Z,100610.75
2022-08-02T16:06:43.333Z,100610.94
2022-08-02T16:09:10.517Z,100609.22
2022-08-02T16:11:37.972Z,100609.03
2022-08-02T16:14:05.529Z,100607.13
2022-08-02T16:16:34.349Z,100608.50
2022-08-02T16:19:46.693Z,100607.47
2022-08-02T16:21:50.602Z,100607.13
2022-08-02T16:24:17.867Z,100603.72
2022-08-02T16:26:45.121Z,100610.25
2022-08-02T16:29:12.363Z,100615.75
2022-08-02T16:31:42.575Z,100608.19
2022-08-02T16:34:10.303Z,100620.19
2022-08-02T16:36:37.882Z,100608.19
2022-08-02T16:39:05.384Z,100610.41
2022-08-02T16:41:45.438Z,100607.13
2022-08-02T16:44:27.659Z,100600.78
2022-08-02T16:47:00.549Z,100608.19
2022-08-02T16:50:05.180Z,100607.31
2022-08-02T16:52:19.065Z,100603.34
2022-08-02T16:54:49.446Z,100610.06
2022-08-02T16:57:20.032Z,100606.09
2022-08-02T16:59:58.088Z,100601.66
2022-08-02T17:02:26.363Z,100609.88
2022-08-02T17:04:53.624Z,100611.09
2022-08-02T17:08:15.238Z,100606.63
2022-08-02T17:10:09.546Z,100611.22
2022-08-02T17:12:37.691Z,100610.38
2022-08-02T17:15:57.042Z,100620.56
2022-08-02T17:18:26.467Z,100622.41
2022-08-02T17:20:54.388Z,100626.22
2022-08-02T17:23:21.560Z,100627.56
2022-08-02T17:25:52.731Z,100619.34
2022-08-02T17:28:20.075Z,100628.75
2022-08-02T17:30:47.294Z,100638.19
2022-08-02T17:33:15.842Z,100638.34
2022-08-02T17:35:52.904Z,100636.81
2022-08-02T17:38:25.891Z,100641.97
2022-08-02T17:40:54.968Z,100635.44
2022-08-02T17:43:22.172Z,100643.31
2022-08-02T17:46:00.316Z,100649.50
2022-08-02T17:48:50.090Z,100650.03
2022-08-02T17:52:15.453Z,100648.63
2022-08-02T17:54:09.466Z,100656.34
2022-08-02T17:56:37.205Z,100653.09
2022-08-02T18:02:11.658Z,100654.63
2022-08-02T18:04:39.141Z,100661.63
2022-08-02T18:09:54.257Z,100661.63
2022-08-02T18:12:21.661Z,100664.19
2022-08-02T18:14:49.493Z,100659.03
2022-08-02T18:17:16.886Z,100658.00
2022-08-02T18:19:53.881Z,100666.41
2022-08-02T18:22:22.709Z,100661.22
2022-08-02T18:24:53.776Z,100663.66
2022-08-02T18:27:21.050Z,100663.97
2022-08-02T18:29:48.486Z,100667.91
2022-08-02T18:33:54.330Z,100664.63
2022-08-02T18:35:15.034Z,100671.13
2022-08-02T18:37:43.812Z,100667.38
2022-08-02T18:40:15.021Z,100660.47
2022-08-02T18:42:42.234Z,100662.53
2022-08-02T18:45:19.721Z,100667.50
2022-08-02T18:47:50.774Z,100663.16
2022-08-02T18:50:35.769Z,100670.03
2022-08-02T18:53:03.209Z,100669.16
2022-08-02T18:55:59.772Z,100666.59
2022-08-02T18:58:20.396Z,100661.75
2022-08-02T19:00:51.785Z,100663.81
2022-08-02T19:03:19.513Z,100665.53
2022-08-02T19:05:52.189Z,100666.59
2022-08-02T19:08:25.417Z,100669.66
2022-08-02T19:10:56.219Z,100675.69
2022-08-02T19:13:24.067Z,100678.25
2022-08-02T19:15:52.384Z,100678.72
2022-08-02T19:18:19.635Z,100675.47
2022-08-02T19:20:57.207Z,100682.50
2022-08-02T19:23:29.771Z,100682.28
2022-08-02T19:25:57.045Z,100691.53
2022-08-02T19:28:26.127Z,100691.69
2022-08-02T19:30:54.641Z,100698.38
2022-08-02T19:33:25.250Z,100709.53
2022-08-02T19:36:09.813Z,100710.38
2022-08-02T19:38:43.838Z,100711.34
2022-08-02T19:41:13.228Z,100711.84
2022-08-02T19:44:25.146Z,100715.06
2022-08-02T19:46:28.150Z,100719.13
2022-08-02T19:48:55.369Z,100725.78
2022-08-02T19:51:50.022Z,100727.47
2022-08-02T19:54:11.059Z,100721.56
2022-08-02T19:56:40.513Z,100736.31
2022-08-02T19:59:13.812Z,100735.22
2022-08-02T20:01:46.337Z,100735.78
2022-08-02T20:04:18.825Z,100743.13
2022-08-02T20:06:51.494Z,100739.06
2022-08-02T20:09:21.489Z,100737.00
2022-08-02T20:11:54.400Z,100732.59
2022-08-02T20:14:26.643Z,100746.72
2022-08-02T20:16:54.793Z,100740.38
2022-08-02T20:19:21.978Z,100745.13
2022-08-02T20:21:54.315Z,100744.66
2022-08-02T20:24:26.716Z,100748.84
2022-08-02T20:26:54.761Z,100745.38
2022-08-02T20:29:45.070Z,100752.94
2022-08-02T20:32:09.452Z,100749.91
2022-08-02T20:34:37.170Z,100752.97
2022-08-02T20:38:01.137Z,100758.22
2022-08-02T20:39:52.595Z,100756.25
2022-08-02T20:42:23.180Z,100760.31
2022-08-02T20:44:54.635Z,100762.81
2022-08-02T20:47:28.028Z,100765.56
2022-08-02T20:50:30.288Z,100758.75
2022-08-02T20:53:00.010Z,100761.78
2022-08-02T20:55:27.980Z,100760.47
2022-08-02T20:58:00.659Z,100759.16
2022-08-02T21:00:28.997Z,100763.78
2022-08-02T21:02:56.177Z,100758.59
2022-08-02T21:05:26.690Z,100765.41
2022-08-02T21:08:13.968Z,100757.88
2022-08-02T21:10:43.616Z,100762.56
2022-08-02T21:13:18.573Z,100761.06
2022-08-02T21:16:22.526Z,100754.28
2022-08-02T21:18:55.779Z,100755.91
2022-08-02T21:21:28.060Z,100760.09
2022-08-02T21:23:55.307Z,100757.41
2022-08-02T21:26:28.216Z,100757.28
2022-08-02T21:28:58.400Z,100756.00
2022-08-02T21:31:29.951Z,100764.22
2022-08-02T21:33:59.451Z,100765.84
2022-08-02T21:36:31.173Z,100759.75
2022-08-02T21:39:00.035Z,100764.09
2022-08-02T21:41:39.584Z,100763.25
2022-08-02T21:44:17.951Z,100774.53
2022-08-02T21:46:45.988Z,100778.41
2022-08-02T21:49:17.003Z,100779.59
2022-08-02T21:51:49.762Z,100781.59
2022-08-02T21:54:20.234Z,100785.19
2022-08-02T21:56:49.831Z,100779.88
2022-08-02T21:59:17.486Z,100774.84
2022-08-02T22:01:53.024Z,100779.16
2022-08-02T22:04:21.563Z,100781.88
2022-08-02T22:06:49.332Z,100788.75
2022-08-02T22:09:43.452Z,100785.88
2022-08-02T22:12:09.854Z,100787.63
2022-08-02T22:14:39.659Z,100785.13
2022-08-02T22:17:08.866Z,100791.03
2022-08-02T22:19:54.051Z,100792.44
2022-08-02T22:22:28.217Z,100801.50
2022-08-02T22:24:56.552Z,100794.44
2022-08-02T22:28:13.267Z,100790.16
2022-08-02T22:30:11.867Z,100791.44
2022-08-02T22:32:57.967Z,100797.88
2022-08-02T22:35:25.249Z,100800.03
2022-08-02T22:38:17.389Z,100802.75
2022-08-02T22:40:40.265Z,100809.53
2022-08-02T22:43:07.448Z,100811.50
2022-08-02T22:45:39.563Z,100801.63
2022-08-02T22:48:07.018Z,100792.31
2022-08-02T22:50:34.568Z,100800.19
2022-08-02T22:53:03.025Z,100799.56
2022-08-02T22:55:49.782Z,100799.28
2022-08-02T22:58:16.925Z,100801.88
2022-08-02T22:58:43.325Z,100662.34
2022-08-02T22:58:49.180Z,100658.91
2022-08-02T23:00:46.820Z,100801.44
2022-08-02T23:03:14.009Z,100807.19
2022-08-02T23:05:41.504Z,100803.03
2022-08-02T23:08:08.768Z,100808.44
2022-08-02T23:10:35.948Z,100814.84
2022-08-02T23:13:03.195Z,100803.31
2022-08-02T23:15:50.343Z,100804.28
2022-08-02T23:18:36.243Z,100803.69
2022-08-02T23:21:03.594Z,100802.97
2022-08-02T23:23:30.733Z,100803.38
2022-08-02T23:25:57.894Z,100813.84
2022-08-02T23:28:25.081Z,100807.63
2022-08-02T23:30:52.291Z,100813.22
2022-08-02T23:33:19.515Z,100806.19
2022-08-02T23:35:46.691Z,100803.72
2022-08-02T23:38:13.879Z,100803.72
2022-08-02T23:40:41.381Z,100806.19
2022-08-02T23:43:13.352Z,100812.63
2022-08-02T23:45:43.095Z,100809.44
2022-08-02T23:48:10.276Z,100809.19
2022-08-02T23:50:37.482Z,100813.44
2022-08-02T23:53:04.684Z,100810.00
2022-08-02T23:55:31.890Z,100816.16
2022-08-02T23:57:59.011Z,100816.31
